Time;durP1;ratioP1;P1;durP2;ratioP2;P2;SDS_P1;SDS_P2;PMS_P1;PMS_P2;Temp;Humidity;BMP_temperature;BMP_pressure;BME280_temperature;BME280_humidity;BME280_pressure;Samples;Min_cycle;Max_cycle;Signal;HPM_P1;HPM_P2
2022/01/17 00:00:12;;;;;;;12.05;4.13;;;5.00;99.90;;;;;;5068207;28;20072;-69
2022/01/17 00:02:44;;;;;;;12.60;3.80;;;5.00;99.90;;;;;;5067744;28;20553;-68
2022/01/17 00:05:11;;;;;;;15.57;4.32;;;5.00;99.90;;;;;;5068029;28;20223;-68
2022/01/17 00:07:38;;;;;;;15.45;2.78;;;4.90;99.90;;;;;;5065857;28;20085;-68
2022/01/17 00:10:05;;;;;;;22.42;5.20;;;4.90;99.90;;;;;;5066885;28;20094;-68
2022/01/17 00:12:36;;;;;;;20.83;3.78;;;4.90;99.90;;;;;;5067541;28;20091;-69
2022/01/17 00:15:15;;;;;;;16.25;4.32;;;4.80;99.90;;;;;;5068539;28;20052;-69
2022/01/17 00:17:45;;;;;;;17.25;4.95;;;4.80;99.90;;;;;;5072727;28;20123;-68
2022/01/17 00:20:17;;;;;;;19.83;5.07;;;4.80;99.90;;;;;;5073445;28;20082;-69
2022/01/17 00:22:47;;;;;;;17.80;5.10;;;4.70;99.90;;;;;;5071052;28;20059;-68
2022/01/17 00:25:14;;;;;;;22.23;3.83;;;4.70;99.90;;;;;;5071355;28;20496;-69
2022/01/17 00:27:41;;;;;;;27.70;4.90;;;4.70;99.90;;;;;;5071413;28;20052;-68
2022/01/17 00:30:09;;;;;;;23.02;4.55;;;4.70;99.90;;;;;;5070174;28;20052;-69
2022/01/17 00:32:36;;;;;;;19.83;5.00;;;4.60;99.90;;;;;;5070945;28;20752;-69
2022/01/17 00:35:03;;;;;;;25.80;5.43;;;4.60;99.90;;;;;;5073584;28;20094;-69
2022/01/17 00:37:30;;;;;;;25.05;6.18;;;4.60;99.90;;;;;;5077950;28;20582;-69
2022/01/17 00:39:57;;;;;;;15.18;3.67;;;4.60;99.90;;;;;;5070315;28;20043;-69
2022/01/17 00:42:24;;;;;;;19.30;5.05;;;4.60;99.90;;;;;;5069025;28;20052;-68
2022/01/17 00:44:51;;;;;;;16.60;3.75;;;4.60;99.90;;;;;;5072007;28;20101;-68
2022/01/17 00:47:17;;;;;;;26.35;5.18;;;4.50;99.90;;;;;;5073657;28;20052;-69
2022/01/17 00:49:44;;;;;;;13.75;3.83;;;4.50;99.90;;;;;;5073230;28;20471;-67
2022/01/17 00:52:11;;;;;;;13.35;3.30;;;4.60;99.90;;;;;;5072507;28;20083;-69
2022/01/17 00:54:38;;;;;;;18.88;4.13;;;4.50;99.90;;;;;;5073689;28;20095;-68
2022/01/17 00:57:05;;;;;;;22.95;4.40;;;4.50;99.90;;;;;;5072043;28;20499;-68
2022/01/17 00:59:31;;;;;;;33.42;4.05;;;4.40;99.90;;;;;;5072083;28;20629;-69
2022/01/17 01:01:58;;;;;;;24.63;3.63;;;4.40;99.90;;;;;;5038902;28;20044;-68
2022/01/17 01:04:25;;;;;;;23.13;7.07;;;4.40;99.90;;;;;;5072922;28;20097;-68
2022/01/17 01:06:52;;;;;;;17.00;4.70;;;4.40;99.90;;;;;;5070865;28;20185;-67
2022/01/17 01:09:19;;;;;;;18.40;3.47;;;4.40;99.90;;;;;;5071354;28;20127;-68
2022/01/17 01:11:46;;;;;;;22.88;3.92;;;4.30;99.90;;;;;;5070872;28;20515;-68
2022/01/17 01:14:13;;;;;;;13.93;4.05;;;4.30;99.90;;;;;;5070824;28;20047;-68
2022/01/17 01:16:40;;;;;;;15.93;4.22;;;4.30;99.90;;;;;;5069993;28;20048;-68
2022/01/17 01:29:47;;;;;;;13.50;4.07;;;4.20;99.90;;;;;;5073504;28;20078;-68
2022/01/17 01:32:18;;;;;;;20.58;4.38;;;4.20;99.90;;;;;;5072272;28;20099;-68
2022/01/17 01:34:50;;;;;;;18.08;3.35;;;4.10;99.90;;;;;;5072056;28;20074;-68
2022/01/17 01:37:16;;;;;;;28.10;4.95;;;4.20;99.90;;;;;;5072941;28;20052;-68
2022/01/17 01:39:43;;;;;;;20.17;3.40;;;4.10;99.90;;;;;;5073147;28;20052;-68
2022/01/17 01:42:16;;;;;;;15.73;3.65;;;4.10;99.90;;;;;;5073978;28;20064;-68
2022/01/17 01:44:44;;;;;;;16.65;4.63;;;4.00;99.90;;;;;;5092210;28;20044;-68
2022/01/17 01:47:11;;;;;;;20.30;3.70;;;4.00;99.90;;;;;;5084327;28;20048;-68
2022/01/17 01:49:38;;;;;;;24.02;4.30;;;4.00;99.90;;;;;;5070917;28;20049;-68
2022/01/17 01:52:05;;;;;;;15.23;3.50;;;4.00;99.90;;;;;;5071341;28;20072;-68
2022/01/17 01:54:32;;;;;;;13.40;3.70;;;4.00;99.90;;;;;;5081734;28;20063;-69
2022/01/17 01:56:59;;;;;;;11.68;4.13;;;3.90;99.90;;;;;;5091046;28;20048;-69
2022/01/17 01:59:25;;;;;;;12.25;3.72;;;4.00;99.90;;;;;;5074736;28;20166;-70
2022/01/17 02:01:52;;;;;;;15.43;3.33;;;3.80;99.90;;;;;;5071776;28;20036;-69
2022/01/17 02:04:19;;;;;;;14.50;3.53;;;3.80;99.90;;;;;;5072062;28;20098;-69
2022/01/17 02:06:46;;;;;;;12.98;4.20;;;3.80;99.90;;;;;;5072073;28;20093;-71
2022/01/17 02:09:13;;;;;;;13.75;4.32;;;3.90;99.90;;;;;;5070277;28;20671;-69
2022/01/17 02:11:40;;;;;;;16.70;3.15;;;3.70;99.90;;;;;;5071833;28;20118;-68
2022/01/17 02:14:06;;;;;;;21.65;4.22;;;3.70;99.90;;;;;;5070234;28;20067;-69
2022/01/17 02:16:33;;;;;;;23.13;3.65;;;3.80;99.90;;;;;;5071815;28;20049;-68
2022/01/17 02:19:00;;;;;;;23.73;3.72;;;3.70;99.90;;;;;;5069956;28;20545;-70
2022/01/17 02:21:45;;;;;;;23.40;4.05;;;3.70;99.90;;;;;;5070061;28;20048;-69
2022/01/17 02:24:16;;;;;;;;;;;3.70;99.90;;;;;;5064106;28;20519;-69
2022/01/17 02:26:44;;;;;;;12.82;3.60;;;3.70;99.90;;;;;;5072634;28;19924;-69
2022/01/17 02:29:10;;;;;;;9.65;2.58;;;3.70;99.90;;;;;;5071924;28;20415;-69
2022/01/17 02:31:37;;;;;;;14.75;3.22;;;3.60;99.90;;;;;;5072845;28;20055;-68
2022/01/17 02:34:04;;;;;;;12.65;3.45;;;3.80;99.90;;;;;;5071189;28;20048;-68
2022/01/17 02:36:31;;;;;;;16.48;3.88;;;3.60;99.90;;;;;;5072769;28;20040;-68
2022/01/17 02:38:58;;;;;;;15.82;3.63;;;3.60;99.90;;;;;;5072759;28;20569;-69
2022/01/17 02:41:35;;;;;;;12.50;3.28;;;3.60;99.90;;;;;;5072518;28;20090;-69
2022/01/17 02:44:02;;;;;;;12.00;3.45;;;3.60;99.90;;;;;;4732896;27;9999876;-68
2022/01/17 02:46:29;;;;;;;14.32;3.40;;;3.60;99.90;;;;;;5067686;28;20052;-70
2022/01/17 02:48:57;;;;;;;15.27;2.63;;;3.60;99.90;;;;;;5069989;28;20511;-68
2022/01/17 02:51:24;;;;;;;22.02;3.92;;;3.60;99.90;;;;;;5059451;28;20147;-69
2022/01/17 02:53:51;;;;;;;11.52;2.70;;;3.60;99.90;;;;;;5051254;28;20423;-69
2022/01/17 02:56:19;;;;;;;22.67;3.95;;;3.50;99.90;;;;;;5067267;28;20091;-68
2022/01/17 02:58:46;;;;;;;14.55;3.92;;;3.50;99.90;;;;;;5069547;28;20052;-68
2022/01/17 03:01:25;;;;;;;12.23;3.35;;;3.60;99.90;;;;;;5069307;28;20450;-68
2022/01/17 03:03:53;;;;;;;12.63;4.50;;;3.50;99.90;;;;;;5070622;28;20430;-68
2022/01/17 03:06:20;;;;;;;20.00;3.38;;;3.50;99.90;;;;;;5069988;28;20526;-68
2022/01/17 03:08:46;;;;;;;12.68;2.72;;;3.40;99.90;;;;;;5083988;28;20056;-68
2022/01/17 03:11:15;;;;;;;9.65;3.55;;;3.50;99.90;;;;;;5072941;28;20544;-68
2022/01/17 03:13:42;;;;;;;19.45;3.50;;;3.60;99.90;;;;;;5069498;28;20438;-68
2022/01/17 03:16:15;;;;;;;13.15;3.78;;;3.50;99.90;;;;;;5070316;28;20102;-68
2022/01/17 03:18:49;;;;;;;15.60;3.60;;;3.40;99.90;;;;;;5069355;28;20048;-68
2022/01/17 03:21:17;;;;;;;10.43;2.85;;;3.40;99.90;;;;;;5068730;28;20141;-68
2022/01/17 03:23:44;;;;;;;15.90;2.95;;;3.40;99.90;;;;;;5068445;28;20044;-68
2022/01/17 03:26:11;;;;;;;14.77;2.67;;;3.40;99.90;;;;;;5069425;28;20473;-68
2022/01/17 03:28:38;;;;;;;13.82;3.33;;;3.40;99.90;;;;;;5091097;28;20109;-68
2022/01/17 03:31:05;;;;;;;24.52;3.08;;;3.40;99.90;;;;;;5077050;28;20105;-68
2022/01/17 03:33:32;;;;;;;20.63;3.40;;;3.30;99.90;;;;;;5070404;28;20356;-68
2022/01/17 03:35:59;;;;;;;18.25;3.00;;;3.30;99.90;;;;;;5069919;28;20122;-68
2022/01/17 03:38:29;;;;;;;14.23;2.50;;;3.20;99.90;;;;;;5064268;28;20408;-68
2022/01/17 03:40:57;;;;;;;16.75;4.30;;;3.30;99.90;;;;;;5069960;28;20647;-68
2022/01/17 03:43:24;;;;;;;16.95;3.03;;;3.30;99.90;;;;;;5070213;28;20048;-67
2022/01/17 03:45:51;;;;;;;12.55;2.92;;;3.30;99.90;;;;;;5052087;28;20048;-68
2022/01/17 03:48:19;;;;;;;9.52;2.80;;;3.30;99.90;;;;;;5070222;28;20104;-68
2022/01/17 03:50:46;;;;;;;19.48;3.00;;;3.20;99.90;;;;;;5070307;28;20040;-68
2022/01/17 03:53:13;;;;;;;12.38;2.90;;;3.30;99.90;;;;;;5067186;28;20044;-68
2022/01/17 03:55:39;;;;;;;16.05;3.13;;;3.20;99.90;;;;;;5070756;28;20064;-69
2022/01/17 03:58:07;;;;;;;16.88;3.15;;;3.20;99.90;;;;;;5077444;28;20419;-68
2022/01/17 04:00:36;;;;;;;12.57;2.47;;;3.20;99.90;;;;;;5090108;28;20060;-68
2022/01/17 04:03:03;;;;;;;10.80;3.00;;;3.20;99.90;;;;;;5068767;28;20094;-68
2022/01/17 04:05:30;;;;;;;14.82;2.88;;;3.20;99.90;;;;;;5060673;28;20106;-68
2022/01/17 04:07:57;;;;;;;10.98;2.45;;;3.20;99.90;;;;;;5072610;28;20086;-69
2022/01/17 04:10:24;;;;;;;16.52;3.63;;;3.20;99.90;;;;;;5069189;28;20083;-68
2022/01/17 04:12:51;;;;;;;21.08;2.88;;;3.20;99.90;;;;;;5066338;28;20079;-70
2022/01/17 04:15:18;;;;;;;18.58;2.53;;;3.20;99.90;;;;;;5065725;28;20048;-68
2022/01/17 04:17:44;;;;;;;14.30;3.05;;;3.20;99.90;;;;;;5068693;28;20052;-67
2022/01/17 04:20:24;;;;;;;15.85;2.80;;;3.20;99.90;;;;;;5069364;28;20048;-68
2022/01/17 04:22:53;;;;;;;14.13;2.55;;;3.20;99.90;;;;;;5070661;28;20090;-69
2022/01/17 04:25:21;;;;;;;17.80;2.45;;;3.20;99.90;;;;;;5071104;28;20060;-68
2022/01/17 04:27:48;;;;;;;11.57;2.20;;;3.20;99.90;;;;;;5069287;28;20094;-68
2022/01/17 04:30:15;;;;;;;19.80;3.15;;;3.10;99.90;;;;;;5068568;28;20076;-68
2022/01/17 04:32:43;;;;;;;10.50;3.53;;;3.10;99.90;;;;;;5068105;28;20044;-69
2022/01/17 04:35:10;;;;;;;23.05;3.03;;;3.20;99.90;;;;;;5068367;28;20068;-68
2022/01/17 04:37:37;;;;;;;19.48;2.65;;;3.10;99.90;;;;;;5068522;28;20561;-69
2022/01/17 04:40:04;;;;;;;14.80;2.47;;;3.10;99.90;;;;;;5069264;28;20106;-68
2022/01/17 04:42:31;;;;;;;16.17;4.22;;;3.10;99.90;;;;;;5068598;28;20420;-69
2022/01/17 04:45:08;;;;;;;15.23;3.22;;;3.10;99.90;;;;;;5060402;28;20046;-68
2022/01/17 04:47:36;;;;;;;13.27;2.75;;;3.10;99.90;;;;;;5069542;28;20393;-69
2022/01/17 04:50:07;;;;;;;17.08;2.40;;;3.00;99.90;;;;;;5072614;28;20064;-69
2022/01/17 04:52:35;;;;;;;14.10;2.25;;;3.00;99.90;;;;;;5072158;28;20474;-69
2022/01/17 04:55:03;;;;;;;14.35;2.72;;;3.00;99.90;;;;;;5071053;28;20396;-70
2022/01/17 04:57:30;;;;;;;13.93;2.83;;;3.00;99.90;;;;;;5071871;28;20041;-69
2022/01/17 04:59:57;;;;;;;12.05;3.42;;;3.10;99.90;;;;;;5070987;28;20106;-69
2022/01/17 05:02:24;;;;;;;18.80;2.65;;;2.90;99.90;;;;;;5074974;28;20087;-74
2022/01/17 05:04:52;;;;;;;12.70;2.92;;;2.90;99.90;;;;;;5075409;28;20048;-68
2022/01/17 05:07:19;;;;;;;14.80;2.40;;;2.90;99.90;;;;;;5076310;28;20049;-69
2022/01/17 05:09:46;;;;;;;9.80;2.83;;;3.00;99.90;;;;;;5076546;28;20040;-70
2022/01/17 05:12:14;;;;;;;13.10;2.35;;;2.90;99.90;;;;;;5077044;28;20515;-70
2022/01/17 05:14:44;;;;;;;18.35;3.50;;;2.90;99.90;;;;;;5081756;28;20049;-69
2022/01/17 05:19:52;;;;;;;18.27;3.50;;;2.90;99.90;;;;;;5074623;28;20512;-69
2022/01/17 05:22:19;;;;;;;14.95;2.28;;;2.80;99.90;;;;;;5075405;28;20659;-69
2022/01/17 05:24:47;;;;;;;15.10;2.67;;;2.80;99.90;;;;;;5074010;28;20094;-70
2022/01/17 05:27:14;;;;;;;13.38;3.05;;;2.80;99.90;;;;;;5074392;28;20044;-69
2022/01/17 05:29:41;;;;;;;20.05;2.90;;;2.80;99.90;;;;;;5074983;28;20090;-70
2022/01/17 05:32:10;;;;;;;12.35;2.45;;;2.70;99.90;;;;;;5075450;28;20411;-69
2022/01/17 05:34:40;;;;;;;18.13;3.05;;;2.70;99.90;;;;;;5074850;28;20036;-67
2022/01/17 05:37:08;;;;;;;17.83;2.70;;;2.70;99.90;;;;;;5063870;28;20051;-68
2022/01/17 05:39:35;;;;;;;12.85;3.05;;;2.70;99.90;;;;;;5073596;28;20052;-69
2022/01/17 05:42:03;;;;;;;11.95;3.72;;;2.70;99.90;;;;;;5071874;28;20063;-69
2022/01/17 05:44:30;;;;;;;17.23;5.05;;;2.70;99.90;;;;;;5072193;28;20083;-69
2022/01/17 05:46:56;;;;;;;21.58;3.22;;;2.70;99.90;;;;;;5069828;28;20076;-69
2022/01/17 05:49:23;;;;;;;14.07;3.83;;;2.70;99.90;;;;;;5072327;28;20621;-69
2022/01/17 05:51:50;;;;;;;20.40;2.15;;;2.70;99.90;;;;;;5071213;28;20553;-69
2022/01/17 05:54:17;;;;;;;13.88;2.50;;;2.70;99.90;;;;;;5071725;28;20075;-69
2022/01/17 05:56:47;;;;;;;11.50;2.53;;;2.70;99.90;;;;;;5071282;28;20095;-69
2022/01/17 05:59:14;;;;;;;12.98;2.72;;;2.70;99.90;;;;;;5053040;28;20094;-68
2022/01/17 06:01:42;;;;;;;19.33;3.47;;;2.70;99.90;;;;;;5064919;28;20045;-69
2022/01/17 06:04:09;;;;;;;14.38;2.55;;;2.60;99.90;;;;;;5070682;28;20052;-69
2022/01/17 06:06:36;;;;;;;10.07;1.90;;;2.60;99.90;;;;;;5076872;28;20045;-69
2022/01/17 06:09:03;;;;;;;16.75;2.67;;;2.60;99.90;;;;;;5071782;28;20519;-68
2022/01/17 06:11:33;;;;;;;13.77;2.63;;;2.60;99.90;;;;;;5070999;28;20040;-68
2022/01/17 06:14:00;;;;;;;14.85;3.05;;;2.60;99.90;;;;;;5070671;28;20037;-68
2022/01/17 06:16:27;;;;;;;14.63;2.53;;;2.60;99.90;;;;;;5060048;28;20461;-68
2022/01/17 06:18:54;;;;;;;13.57;3.65;;;2.60;99.90;;;;;;5069753;28;20139;-69
2022/01/17 06:21:21;;;;;;;10.25;3.30;;;2.60;99.90;;;;;;5070144;28;20044;-68
2022/01/17 06:23:47;;;;;;;18.60;5.30;;;2.60;99.90;;;;;;5070457;28;20153;-69
2022/01/17 06:26:14;;;;;;;16.40;2.92;;;2.60;99.90;;;;;;5070999;28;20128;-69
2022/01/17 06:28:41;;;;;;;9.18;3.45;;;2.60;99.90;;;;;;5070581;28;20408;-69
2022/01/17 06:31:08;;;;;;;14.32;2.78;;;2.50;99.90;;;;;;5071517;28;20522;-69
2022/01/17 06:33:34;;;;;;;18.00;4.20;;;2.50;99.90;;;;;;5069727;28;20439;-69
2022/01/17 06:36:01;;;;;;;17.02;2.78;;;2.60;99.90;;;;;;5059277;28;20045;-68
2022/01/17 06:38:28;;;;;;;20.58;4.00;;;2.50;99.90;;;;;;5063270;28;20462;-69
2022/01/17 06:40:55;;;;;;;13.07;3.08;;;2.50;99.90;;;;;;5061886;28;20055;-69
2022/01/17 06:43:22;;;;;;;19.23;3.70;;;2.50;99.90;;;;;;5070489;28;20648;-69
2022/01/17 06:45:49;;;;;;;24.90;3.53;;;2.70;99.90;;;;;;5068856;28;20498;-68
2022/01/17 06:48:16;;;;;;;11.52;3.72;;;2.50;99.90;;;;;;5058845;28;20056;-69
2022/01/17 06:50:42;;;;;;;21.55;3.33;;;2.50;99.90;;;;;;5057822;28;20107;-68
2022/01/17 06:53:09;;;;;;;13.20;2.65;;;2.50;99.90;;;;;;5069668;28;20411;-68
2022/01/17 06:55:36;;;;;;;20.15;4.07;;;2.50;99.90;;;;;;5061777;28;20072;-68
2022/01/17 06:58:03;;;;;;;13.75;2.63;;;2.40;99.90;;;;;;5065253;28;20056;-73
2022/01/17 07:00:30;;;;;;;20.45;3.22;;;2.40;99.90;;;;;;5065962;28;20048;-70
2022/01/17 07:02:57;;;;;;;20.45;3.60;;;2.40;99.90;;;;;;5063670;28;20125;-69
2022/01/17 07:05:24;;;;;;;17.23;4.00;;;2.50;99.90;;;;;;5061259;28;20075;-67
2022/01/17 07:07:51;;;;;;;24.25;7.40;;;2.50;99.90;;;;;;5061372;28;20048;-68
2022/01/17 07:10:17;;;;;;;16.33;5.53;;;2.50;99.90;;;;;;5068712;28;20526;-68
2022/01/17 07:12:44;;;;;;;18.60;3.40;;;2.50;99.90;;;;;;5078687;28;20048;-68
2022/01/17 07:15:11;;;;;;;14.15;3.90;;;2.70;99.90;;;;;;5069263;28;20051;-68
2022/01/17 07:17:38;;;;;;;22.75;4.63;;;2.50;99.90;;;;;;5069719;28;20079;-68
2022/01/17 07:20:05;;;;;;;18.08;5.55;;;2.50;99.90;;;;;;5065524;28;20453;-68
2022/01/17 07:22:32;;;;;;;15.90;3.42;;;2.50;99.90;;;;;;5083617;28;20078;-69
2022/01/17 07:25:00;;;;;;;21.52;5.20;;;2.50;99.90;;;;;;5068541;28;20070;-68
2022/01/17 07:27:32;;;;;;;26.02;5.50;;;2.50;99.90;;;;;;5057271;28;20049;-69
2022/01/17 07:29:59;;;;;;;16.63;3.38;;;2.50;99.90;;;;;;5059121;28;20041;-68
2022/01/17 07:32:26;;;;;;;17.25;3.40;;;2.40;99.90;;;;;;5066132;28;20118;-68
2022/01/17 07:34:53;;;;;;;15.20;3.10;;;2.50;99.90;;;;;;5062840;28;20044;-68
2022/01/17 07:37:20;;;;;;;13.43;3.60;;;2.50;99.90;;;;;;5062429;28;20136;-68
2022/01/17 07:39:47;;;;;;;21.30;4.38;;;2.40;99.90;;;;;;5060660;28;20041;-68
2022/01/17 07:42:14;;;;;;;17.65;3.60;;;2.40;99.90;;;;;;5058749;28;20080;-67
2022/01/17 07:44:43;;;;;;;17.30;3.30;;;2.30;99.90;;;;;;5062112;28;20098;-69
2022/01/17 07:47:17;;;;;;;14.95;4.28;;;2.40;99.90;;;;;;5066989;28;20098;-68
2022/01/17 07:49:45;;;;;;;13.68;3.67;;;2.40;99.90;;;;;;5068863;28;20495;-67
2022/01/17 07:52:32;;;;;;;14.82;3.83;;;2.60;99.90;;;;;;5067895;28;20139;-67
2022/01/17 07:54:59;;;;;;;18.30;2.90;;;2.50;99.90;;;;;;5065777;28;20079;-68
2022/01/17 07:57:25;;;;;;;16.95;4.07;;;2.40;99.90;;;;;;5061178;28;20113;-68
2022/01/17 07:59:52;;;;;;;15.35;3.35;;;2.40;99.90;;;;;;5066745;28;20049;-69
2022/01/17 08:02:19;;;;;;;30.35;4.00;;;2.40;99.90;;;;;;5066011;28;20140;-68
2022/01/17 08:04:46;;;;;;;30.90;3.67;;;2.50;99.90;;;;;;5047859;28;20620;-68
2022/01/17 08:07:15;;;;;;;20.20;4.60;;;2.50;99.90;;;;;;5046113;28;20072;-67
2022/01/17 08:09:43;;;;;;;14.52;3.67;;;2.50;99.90;;;;;;5067377;28;20048;-67
2022/01/17 08:12:10;;;;;;;16.88;5.13;;;2.50;99.90;;;;;;5063757;28;20049;-67
2022/01/17 08:15:01;;;;;;;17.60;3.22;;;2.50;99.90;;;;;;5068914;28;20048;-66
2022/01/17 08:17:29;;;;;;;20.65;4.97;;;2.50;99.90;;;;;;5058784;28;20112;-67
2022/01/17 08:19:58;;;;;;;11.50;3.25;;;2.50;99.90;;;;;;5052757;28;20047;-66
2022/01/17 08:22:47;;;;;;;25.20;4.75;;;2.50;99.90;;;;;;5065818;28;20048;-67
2022/01/17 08:25:13;;;;;;;18.80;5.47;;;2.50;99.90;;;;;;5066519;28;20063;-67
2022/01/17 08:27:40;;;;;;;21.70;3.58;;;2.50;99.90;;;;;;5073935;28;20040;-70
2022/01/17 08:30:11;;;;;;;24.00;3.75;;;2.50;99.90;;;;;;5071185;28;20143;-68
2022/01/17 08:33:02;;;;;;;18.70;5.85;;;2.50;99.90;;;;;;5058027;28;20435;-68
2022/01/17 08:35:33;;;;;;;11.98;3.53;;;2.50;99.90;;;;;;5070341;28;20055;-68
2022/01/17 08:38:00;;;;;;;15.57;3.95;;;2.60;99.90;;;;;;5048033;28;20133;-67
2022/01/17 08:40:27;;;;;;;17.38;4.30;;;2.50;99.90;;;;;;5062554;28;20044;-67
2022/01/17 08:42:55;;;;;;;19.33;6.22;;;2.50;99.90;;;;;;5072779;28;20507;-67
2022/01/17 08:45:23;;;;;;;33.60;6.60;;;2.60;99.90;;;;;;5073820;28;20064;-67
2022/01/17 08:48:08;;;;;;;30.08;4.93;;;2.60;99.90;;;;;;5074300;28;20414;-68
2022/01/17 08:50:35;;;;;;;15.68;4.60;;;2.60;99.90;;;;;;5075608;28;20404;-67
2022/01/17 08:53:02;;;;;;;21.33;4.07;;;2.70;99.90;;;;;;5076516;28;20426;-68
2022/01/17 08:55:29;;;;;;;13.70;3.60;;;2.70;99.90;;;;;;5072572;28;20049;-67
2022/01/17 08:57:57;;;;;;;16.35;4.38;;;2.70;99.90;;;;;;5071794;28;20476;-65
2022/01/17 09:00:23;;;;;;;24.13;4.38;;;2.80;99.90;;;;;;5071437;28;20095;-66
2022/01/17 09:03:11;;;;;;;24.20;4.75;;;2.80;99.90;;;;;;5069480;28;20572;-67
2022/01/17 09:05:41;;;;;;;24.10;4.30;;;2.80;99.90;;;;;;5070306;28;20061;-67
2022/01/17 09:08:09;;;;;;;17.75;3.50;;;2.80;99.90;;;;;;5069800;28;20068;-65
2022/01/17 09:10:36;;;;;;;34.75;5.10;;;2.90;99.90;;;;;;5068705;28;20045;-67
2022/01/17 09:13:03;;;;;;;23.25;4.55;;;2.90;99.90;;;;;;5051708;28;20048;-67
2022/01/17 09:15:30;;;;;;;21.65;4.15;;;2.90;99.90;;;;;;5069789;28;20150;-66
2022/01/17 09:17:57;;;;;;;15.90;4.22;;;3.00;99.90;;;;;;5070526;28;20094;-66
2022/01/17 09:20:24;;;;;;;26.70;3.72;;;3.00;99.90;;;;;;5069012;28;20049;-66
2022/01/17 09:22:51;;;;;;;19.40;4.55;;;3.00;99.90;;;;;;5070457;28;20481;-66
2022/01/17 09:25:18;;;;;;;23.00;5.03;;;3.20;99.90;;;;;;5071359;28;20047;-66
2022/01/17 09:27:45;;;;;;;28.02;3.83;;;3.10;99.90;;;;;;5071067;28;20056;-66
2022/01/17 09:30:13;;;;;;;18.33;4.53;;;3.20;99.90;;;;;;5071541;28;20139;-68
2022/01/17 09:32:40;;;;;;;19.95;4.47;;;3.40;99.90;;;;;;5070058;28;20041;-68
2022/01/17 09:35:07;;;;;;;20.88;4.75;;;3.30;99.90;;;;;;5074851;28;20063;-67
2022/01/17 09:37:34;;;;;;;18.65;3.60;;;3.30;99.90;;;;;;5071786;28;20110;-66
2022/01/17 09:40:01;;;;;;;22.35;4.88;;;3.30;99.90;;;;;;5072912;28;20045;-66
2022/01/17 09:42:34;;;;;;;11.85;3.10;;;3.40;99.90;;;;;;5072866;28;20534;-67
2022/01/17 09:45:06;;;;;;;24.25;4.75;;;3.40;99.90;;;;;;5057592;28;20040;-66
2022/01/17 09:47:34;;;;;;;12.32;4.38;;;3.40;99.90;;;;;;5071531;28;20130;-64
2022/01/17 09:50:02;;;;;;;20.77;5.32;;;3.50;99.90;;;;;;5072720;28;20045;-65
2022/01/17 09:52:35;;;;;;;21.92;4.55;;;3.60;99.90;;;;;;5073206;28;20044;-65
2022/01/17 09:55:08;;;;;;;25.87;4.43;;;3.60;99.90;;;;;;5073682;28;20091;-66
2022/01/17 09:57:39;;;;;;;18.07;5.40;;;3.60;99.90;;;;;;5057898;28;20338;-66
2022/01/17 10:00:07;;;;;;;23.20;3.67;;;3.70;99.90;;;;;;5076466;28;20048;-66
2022/01/17 10:02:35;;;;;;;18.80;4.07;;;3.70;99.90;;;;;;5065886;28;20087;-66
2022/01/17 10:05:05;;;;;;;30.17;5.13;;;3.70;99.90;;;;;;5065864;28;20052;-66
2022/01/17 10:07:55;;;;;;;20.90;5.05;;;3.80;99.90;;;;;;5070049;28;20078;-66
2022/01/17 10:10:37;;;;;;;20.95;4.47;;;3.90;99.90;;;;;;5068826;28;20052;-67
2022/01/17 10:13:05;;;;;;;25.13;5.65;;;4.00;99.90;;;;;;5070204;28;20135;-66
2022/01/17 10:15:44;;;;;;;20.42;6.43;;;4.00;99.90;;;;;;5069955;28;20106;-66
2022/01/17 10:18:42;;;;;;;15.70;4.30;;;4.10;99.90;;;;;;5070603;28;20277;-66
2022/01/17 10:21:17;;;;;;;17.77;7.47;;;4.10;99.90;;;;;;5061106;28;20040;-66
2022/01/17 10:37:23;;;;;;;24.58;5.70;;;4.30;99.90;;;;;;5060803;28;20060;-65
2022/01/17 10:39:57;;;;;;;23.55;4.25;;;4.40;99.90;;;;;;5052433;28;20052;-65
2022/01/17 10:42:26;;;;;;;18.58;4.72;;;4.40;99.90;;;;;;5072712;28;20087;-66
2022/01/17 10:44:53;;;;;;;25.90;4.50;;;4.50;99.90;;;;;;5069606;28;20713;-66
2022/01/17 10:47:27;;;;;;;25.85;6.57;;;4.60;99.90;;;;;;5069926;28;20056;-65
2022/01/17 10:49:55;;;;;;;;;;;4.60;99.90;;;;;;5053701;28;20040;-66
2022/01/17 10:52:31;;;;;;;21.48;5.03;;;4.70;99.90;;;;;;5051591;28;20375;-65
2022/01/17 10:54:59;;;;;;;17.67;4.28;;;4.70;99.90;;;;;;5068477;28;20045;-68
2022/01/17 10:57:26;;;;;;;26.33;4.95;;;4.70;99.90;;;;;;5066894;28;20098;-65
2022/01/17 10:59:53;;;;;;;20.40;5.57;;;4.70;99.90;;;;;;5054071;28;20479;-66
2022/01/17 11:02:24;;;;;;;19.08;4.15;;;4.80;99.90;;;;;;5065946;28;20071;-65
2022/01/17 11:04:51;;;;;;;14.20;3.97;;;4.80;99.90;;;;;;5068993;28;20045;-65
2022/01/17 11:07:18;;;;;;;17.45;4.85;;;4.80;99.90;;;;;;5072144;28;20045;-65
2022/01/17 11:09:49;;;;;;;19.67;4.95;;;4.90;99.90;;;;;;5031734;28;20044;-66
2022/01/17 11:12:18;;;;;;;21.00;4.78;;;4.90;99.90;;;;;;5064906;28;20084;-65
2022/01/17 11:14:45;;;;;;;27.60;4.53;;;5.00;99.90;;;;;;5048429;28;20049;-67
2022/01/17 11:17:38;;;;;;;17.55;4.95;;;5.10;99.90;;;;;;5064517;28;20317;-66
2022/01/17 11:20:07;;;;;;;16.23;4.70;;;5.10;99.90;;;;;;5056719;28;20048;-65
2022/01/17 11:22:42;;;;;;;17.45;4.72;;;5.20;99.90;;;;;;5060850;28;20055;-65
2022/01/17 11:25:23;;;;;;;18.25;5.53;;;5.20;99.90;;;;;;5044724;28;20416;-66
2022/01/17 11:27:50;;;;;;;13.00;3.88;;;5.20;99.90;;;;;;5067149;28;20487;-65
2022/01/17 11:30:17;;;;;;;22.38;4.22;;;5.40;99.90;;;;;;5053364;28;20458;-64
2022/01/17 11:32:45;;;;;;;19.60;4.45;;;5.30;99.90;;;;;;5039064;28;20056;-65
2022/01/17 11:35:13;;;;;;;17.52;4.50;;;5.40;99.90;;;;;;5049622;28;20053;-65
2022/01/17 11:37:43;;;;;;;19.30;4.70;;;5.50;99.90;;;;;;5061917;28;20291;-65
2022/01/17 11:40:11;;;;;;;25.50;5.43;;;5.40;99.90;;;;;;5051956;28;20458;-65
2022/01/17 11:42:41;;;;;;;30.80;5.10;;;5.50;99.90;;;;;;5067626;28;20105;-65
2022/01/17 11:45:23;;;;;;;22.10;4.22;;;5.50;99.90;;;;;;5067094;28;20078;-65
2022/01/17 11:47:54;;;;;;;20.50;4.78;;;5.60;99.90;;;;;;5068160;28;20052;-65
2022/01/17 11:50:27;;;;;;;17.23;4.57;;;5.70;99.90;;;;;;5068954;28;20049;-65
2022/01/17 11:52:57;;;;;;;16.63;4.32;;;5.70;99.90;;;;;;5067983;28;20037;-67
2022/01/17 11:55:42;;;;;;;17.33;5.22;;;5.70;99.90;;;;;;5068305;28;20098;-65
2022/01/17 11:58:27;;;;;;;17.58;5.00;;;5.90;99.90;;;;;;5067808;28;20077;-64
2022/01/17 12:00:57;;;;;;;18.42;4.95;;;5.80;99.90;;;;;;5068776;28;20048;-65
2022/01/17 12:03:46;;;;;;;13.02;5.25;;;5.90;99.90;;;;;;5068534;28;20059;-64
2022/01/17 12:06:20;;;;;;;19.42;4.50;;;6.00;99.50;;;;;;5068571;28;20048;-65
2022/01/17 12:08:48;;;;;;;13.93;4.15;;;6.00;99.90;;;;;;5068650;28;20051;-65
2022/01/17 12:11:28;;;;;;;10.98;4.63;;;6.10;99.80;;;;;;5068143;28;20396;-65
2022/01/17 12:14:00;;;;;;;20.10;5.82;;;6.20;99.40;;;;;;5062190;28;20547;-66
2022/01/17 12:16:30;;;;;;;14.82;5.72;;;6.20;99.60;;;;;;5064824;28;20056;-66
2022/01/17 12:19:03;;;;;;;21.02;4.53;;;6.40;99.50;;;;;;5067915;28;20056;-66
2022/01/17 12:21:40;;;;;;;16.80;4.80;;;6.40;99.60;;;;;;5069037;28;20056;-68
2022/01/17 12:24:20;;;;;;;18.73;5.38;;;6.40;99.60;;;;;;5068183;28;20048;-66
2022/01/17 12:27:01;;;;;;;23.38;5.15;;;6.50;99.20;;;;;;5068442;28;20201;-65
2022/01/17 12:29:53;;;;;;;17.80;6.68;;;6.50;98.40;;;;;;5067535;28;20445;-65
2022/01/17 12:32:24;;;;;;;20.33;5.45;;;6.60;98.90;;;;;;5068602;28;20051;-66
2022/01/17 12:34:52;;;;;;;16.58;4.13;;;6.60;99.90;;;;;;5066602;28;20487;-65
2022/01/17 12:37:36;;;;;;;10.80;5.47;;;6.60;99.10;;;;;;5067130;28;20538;-64
2022/01/17 12:40:19;;;;;;;15.05;4.50;;;6.60;98.90;;;;;;5068516;28;20048;-65
2022/01/17 12:43:09;;;;;;;24.77;7.30;;;6.60;98.80;;;;;;5064793;28;20052;-66
2022/01/17 12:45:41;;;;;;;23.02;6.22;;;6.70;99.00;;;;;;5066969;28;20049;-66
2022/01/17 12:48:12;;;;;;;17.13;5.13;;;6.70;99.40;;;;;;5068553;28;20041;-66
2022/01/17 12:50:41;;;;;;;23.38;6.00;;;6.70;99.00;;;;;;5068081;28;20105;-66
2022/01/17 12:53:09;;;;;;;22.23;6.93;;;6.80;99.50;;;;;;5068087;28;20040;-67
2022/01/17 12:55:47;;;;;;;16.63;5.60;;;6.80;99.20;;;;;;5068231;28;20036;-67
2022/01/17 12:58:36;;;;;;;19.23;4.32;;;6.80;99.20;;;;;;5051274;28;20075;-65
2022/01/17 13:01:04;;;;;;;21.17;5.03;;;6.90;97.50;;;;;;5067862;28;20048;-66
2022/01/17 13:03:33;;;;;;;18.88;5.43;;;7.00;98.80;;;;;;5046716;28;20055;-66
2022/01/17 13:06:04;;;;;;;17.85;5.93;;;7.10;98.80;;;;;;5063430;28;20048;-65
2022/01/17 13:08:31;;;;;;;27.25;6.22;;;7.10;98.70;;;;;;5068017;28;20091;-65
2022/01/17 13:11:00;;;;;;;16.67;5.13;;;7.10;98.70;;;;;;5058107;28;20037;-65
2022/01/17 13:13:26;;;;;;;25.15;4.65;;;7.20;97.90;;;;;;5066682;28;20480;-65
2022/01/17 13:16:04;;;;;;;21.88;5.30;;;7.30;97.90;;;;;;5049786;28;20041;-65
2022/01/17 13:18:35;;;;;;;16.15;4.75;;;7.10;96.60;;;;;;5067950;28;20049;-66
2022/01/17 13:21:03;;;;;;;23.35;6.22;;;7.40;98.00;;;;;;5065971;28;20075;-65
2022/01/17 13:23:41;;;;;;;13.32;4.53;;;7.40;98.20;;;;;;5068905;28;20291;-65
2022/01/17 13:26:15;;;;;;;16.73;5.25;;;7.40;97.70;;;;;;5069724;28;20473;-65